Coal Run, Ohio
Current Conditions -  °F | °C
As of 11:53 AM on Monday 24 Nov 2014 (Local Time) from KPKB Reporting Station
Broken Clouds Broken Clouds  
Wind Chill: 68°   Ceiling: 7000
Heat Index: 68°   Visibility: 10mi
Dew Point: 46°   Wind: 16mph
Humidity: 45%   Direction: 260°W
Pressure: 29.48"   Gusts: 31mph
Location:  39.57°N, 81.58°W
Report Text: KPKB 241653Z 26014G27KT 210V290 10SM FEW044 BKN070 20/08 A2948 RMK AO2 PK WND 19040/1618 RAB28E52 SLP978 P0000 T02000078
Loading
Personal Weather Stations






























Interactive Weather Map New forecast layout! Learn more

10-Day Weather Forecast

Advertisements
Track Severe Weather on mobile